Terminal Aerodrome Forecast
Issued by NWS Pueblo, CO

Home | Current Version | Previous Version | Text Only | Print | Product List | Glossary On
Versions: 1 2 3 4 5 6 7 8 9 10 11 12 13 14 15 16 17 18 19 20 21 22 23 24 25 26 27
000
FTUS45 KPUB 301139
TAFALS
TAF
KALS 301139Z 3012/3112 10005KT P6SM SKC
     FM302000 23010KT P6SM SCT100 BKN200
     FM302300 24012G24KT P6SM SCT100 BKN200
     FM310200 26008KT P6SM SCT120 BKN200
     FM310500 VRB06KT P6SM SCT080 BKN200=

USA.gov is the U.S. government's official web portal to all federal, state and local government web resources and services.